Pagrindinis puslapis
METAR-TAF:

METAR-TAF

Oro uostai :

Lampangas, Tailandas

platuma: 18-17N, ilguma: 099-31E, Aukštis: 241 m

Dabartinis oras

Ataskaita buvo paskelbta 7 valandos ir 43 minutes, ne 12:00 UTC
Ramus vėjas
Temperatūra 25°C
Drėgmė 69%
Slėgis 1013 hPa
Matomumas 10 km arba daugiau
nėra debesų žemiau 1500 m ir nėra kamuolinių lietaus debesų

METAR: VTCL 251200Z 00000KT CAVOK 25/19 Q1013 NOSIG

Laikas: 02:43 (19:43 UTC)

Prognozė

Ataskaita buvo paskelbta 2 valandos ir 43 minutes, ne 17:00 UTC
Prognozė galioja nuo 25 metu 18 UTC su 26 metu 18 UTC
Vėjas 5 kt iš Rytų
Matomumas 10 km arba daugiau
Mažai debesys ne aukštis 2500 ft

TAF: VTCL 251700Z 2518/2618 09005KT 9999 FEW025

Orai ataskaitas ir orų prognozės (METAR, TAF).

turimą stotys yra geltonos ir raudonos taškus žemėlapyje.

Perkelti pele per norėdami pamatyti stoties vardą.

Tada spustelėkite, norėdami matyti oro stebėjimo ir prognozės.

Norėdami pakeisti žemėlapį: spustelėkite ant žalios mygtukų su juodo kryžiaus žemyn,; žalią mygtuką su brūkšneliu, jei norite nutolinti; arba žalių rodyklių gretimoms žemėlapius.


METAR-TAF: